Time;durP1;ratioP1;P1;durP2;ratioP2;P2;SDS_P1;SDS_P2;PMS_P1;PMS_P2;Temp;Humidity;BMP_temperature;BMP_pressure;BME280_temperature;BME280_humidity;BME280_pressure;Samples;Min_cycle;Max_cycle;Signal;HPM_P1;HPM_P2
2023/08/29 00:02:17;;;;;;;2.17;1.00;;;;;;;;;;4939513;29;20023;-81
2023/08/29 00:04:43;;;;;;;3.10;1.20;;;;;;;;;;4923199;29;20032;-81
2023/08/29 00:07:09;;;;;;;2.60;1.20;;;;;;;;;;4939858;29;20020;-81
2023/08/29 00:09:35;;;;;;;6.30;1.35;;;;;;;;;;4939543;29;20047;-81
2023/08/29 00:12:02;;;;;;;3.30;1.23;;;;;;;;;;4939746;29;20054;-81
2023/08/29 00:14:29;;;;;;;4.00;1.25;;;;;;;;;;4922832;29;20106;-82
2023/08/29 00:16:55;;;;;;;5.30;1.50;;;;;;;;;;4922561;29;20032;-82
2023/08/29 00:19:21;;;;;;;3.85;1.25;;;;;;;;;;4939094;29;20476;-82
2023/08/29 00:21:47;;;;;;;3.17;1.00;;;;;;;;;;4939464;29;20028;-81
2023/08/29 00:24:14;;;;;;;3.53;1.30;;;;;;;;;;4926585;29;20102;-82
2023/08/29 00:26:41;;;;;;;2.95;1.10;;;;;;;;;;4922739;29;20040;-82
2023/08/29 00:29:07;;;;;;;4.82;1.27;;;;;;;;;;4910227;29;20042;-83
2023/08/29 00:31:33;;;;;;;5.97;1.98;;;;;;;;;;4922573;29;20035;-82
2023/08/29 00:33:59;;;;;;;5.65;1.20;;;;;;;;;;4939318;29;20036;-81
2023/08/29 00:36:25;;;;;;;5.82;1.65;;;;;;;;;;4939589;29;20034;-82
2023/08/29 00:38:51;;;;;;;5.55;1.48;;;;;;;;;;4931431;29;20036;-81
2023/08/29 00:41:17;;;;;;;8.55;1.70;;;;;;;;;;4935238;29;20024;-82
2023/08/29 00:43:43;;;;;;;4.90;1.83;;;;;;;;;;4923244;29;20507;-82
2023/08/29 00:46:09;;;;;;;3.92;1.63;;;;;;;;;;4939858;29;20079;-81
2023/08/29 00:48:35;;;;;;;4.55;1.70;;;;;;;;;;4940563;29;20030;-80
2023/08/29 00:51:02;;;;;;;2.13;1.05;;;;;;;;;;4941952;29;20023;-81
2023/08/29 00:53:29;;;;;;;5.57;1.30;;;;;;;;;;4925677;29;20043;-81
2023/08/29 00:55:55;;;;;;;2.70;1.17;;;;;;;;;;4923976;29;20028;-82
2023/08/29 00:58:21;;;;;;;4.00;1.30;;;;;;;;;;4939693;29;20024;-81
2023/08/29 01:00:49;;;;;;;3.45;1.50;;;;;;;;;;4939162;29;20051;-81
2023/08/29 01:03:15;;;;;;;7.03;1.75;;;;;;;;;;4939226;29;20521;-82
2023/08/29 01:05:41;;;;;;;3.95;1.40;;;;;;;;;;4922131;29;20032;-81
2023/08/29 01:08:07;;;;;;;3.92;1.52;;;;;;;;;;4939643;29;20031;-80
2023/08/29 01:10:47;;;;;;;2.72;1.27;;;;;;;;;;4939309;29;20509;-81
2023/08/29 01:13:13;;;;;;;5.65;1.52;;;;;;;;;;4942199;29;20110;-81
2023/08/29 01:15:41;;;;;;;4.50;1.50;;;;;;;;;;4925548;29;20028;-82
2023/08/29 01:18:07;;;;;;;6.43;1.48;;;;;;;;;;4925858;29;20048;-82
2023/08/29 01:20:37;;;;;;;4.65;1.80;;;;;;;;;;4925539;29;20050;-82
2023/08/29 01:23:06;;;;;;;5.25;1.75;;;;;;;;;;4925596;29;20032;-82
2023/08/29 01:25:40;;;;;;;5.90;1.45;;;;;;;;;;4925011;29;20071;-81
2023/08/29 01:28:09;;;;;;;3.65;1.30;;;;;;;;;;4915588;29;20064;-81
2023/08/29 01:30:38;;;;;;;4.72;1.42;;;;;;;;;;4942066;29;20024;-81
2023/08/29 01:33:04;;;;;;;6.25;1.40;;;;;;;;;;4925443;29;20050;-81
2023/08/29 01:35:30;;;;;;;4.53;1.48;;;;;;;;;;4942367;29;20400;-81
2023/08/29 01:37:56;;;;;;;5.65;1.83;;;;;;;;;;4925358;29;20034;-81
2023/08/29 01:40:22;;;;;;;6.00;2.33;;;;;;;;;;4920621;29;20103;-81
2023/08/29 01:42:48;;;;;;;3.35;1.67;;;;;;;;;;4942415;29;20031;-81
2023/08/29 01:45:14;;;;;;;4.72;1.83;;;;;;;;;;4925344;29;20035;-81
2023/08/29 01:47:42;;;;;;;5.55;1.88;;;;;;;;;;4925446;29;20067;-81
2023/08/29 01:50:08;;;;;;;5.43;1.90;;;;;;;;;;4917147;29;20043;-82
2023/08/29 01:52:35;;;;;;;6.57;2.47;;;;;;;;;;4942076;29;20031;-81
2023/08/29 01:55:02;;;;;;;5.97;2.10;;;;;;;;;;4925154;29;20031;-82
2023/08/29 01:57:28;;;;;;;5.38;1.90;;;;;;;;;;4925002;29;20035;-82
2023/08/29 01:59:54;;;;;;;5.05;1.85;;;;;;;;;;4942114;29;20019;-81
2023/08/29 02:02:20;;;;;;;3.38;1.42;;;;;;;;;;4942057;29;20027;-82
2023/08/29 02:04:46;;;;;;;5.93;1.77;;;;;;;;;;4942191;29;20115;-80
2023/08/29 02:07:12;;;;;;;4.45;1.50;;;;;;;;;;4925067;29;20028;-82
2023/08/29 02:09:38;;;;;;;4.95;1.50;;;;;;;;;;4941917;29;20078;-82
2023/08/29 02:12:05;;;;;;;3.53;1.48;;;;;;;;;;4925048;29;20038;-82
2023/08/29 02:14:31;;;;;;;4.28;1.52;;;;;;;;;;4924653;29;20111;-81
2023/08/29 02:16:57;;;;;;;2.05;1.33;;;;;;;;;;4941720;29;20078;-81
2023/08/29 02:19:23;;;;;;;4.35;1.40;;;;;;;;;;4941903;29;20106;-82
2023/08/29 02:21:49;;;;;;;4.32;1.40;;;;;;;;;;4924717;29;20028;-80
2023/08/29 02:24:15;;;;;;;2.65;1.20;;;;;;;;;;4941126;29;20030;-81
2023/08/29 02:26:41;;;;;;;3.75;1.38;;;;;;;;;;4924235;29;20031;-82
2023/08/29 02:29:07;;;;;;;4.70;1.50;;;;;;;;;;4930485;29;20560;-82
2023/08/29 02:31:33;;;;;;;4.25;1.70;;;;;;;;;;4941426;29;20059;-81
2023/08/29 02:33:59;;;;;;;4.07;1.40;;;;;;;;;;4924508;29;20038;-81
2023/08/29 02:36:25;;;;;;;3.33;1.20;;;;;;;;;;4941332;29;20028;-82
2023/08/29 02:38:53;;;;;;;3.10;1.23;;;;;;;;;;4917531;29;20024;-82
2023/08/29 02:41:19;;;;;;;3.47;1.27;;;;;;;;;;4929104;29;20028;-81
2023/08/29 02:43:45;;;;;;;4.47;1.67;;;;;;;;;;4941472;29;20079;-81
2023/08/29 02:46:11;;;;;;;6.32;1.40;;;;;;;;;;4923775;29;20033;-82
2023/08/29 02:52:01;;;;;;;4.28;1.48;;;;;;;;;;4941317;29;20055;-83
2023/08/29 02:54:37;;;;;;;;;;;;;;;;;;;;;
2023/08/29 02:57:22;;;;;;;;;;;;;;;;;;;;;
2023/08/29 03:00:44;;;;;;;;;;;;;;;;;;;;;
2023/08/29 03:03:28;;;;;;;;;;;;;;;;;;;;;
2023/08/29 03:09:36;;;;;;;3.28;1.35;;;;;;;;;;4870990;29;20035;-83
2023/08/29 03:15:02;;;;;;;3.83;1.13;;;;;;;;;;4940721;29;20063;-80
2023/08/29 03:17:28;;;;;;;3.55;1.15;;;;;;;;;;4940547;29;20087;-80
2023/08/29 03:19:54;;;;;;;3.72;1.10;;;;;;;;;;4923689;29;20035;-81
2023/08/29 03:22:20;;;;;;;3.72;1.48;;;;;;;;;;4923666;29;20036;-80
2023/08/29 03:24:46;;;;;;;6.05;1.33;;;;;;;;;;4940627;29;20028;-81
2023/08/29 03:27:12;;;;;;;3.20;1.38;;;;;;;;;;4920052;29;20032;-80
2023/08/29 03:29:39;;;;;;;4.43;1.35;;;;;;;;;;4932433;29;20849;-80
2023/08/29 03:32:05;;;;;;;3.42;1.10;;;;;;;;;;4940326;29;20063;-80
2023/08/29 03:34:32;;;;;;;4.50;1.38;;;;;;;;;;4940354;29;20507;-81
2023/08/29 03:36:58;;;;;;;3.03;1.25;;;;;;;;;;4939414;29;20028;-81
2023/08/29 03:39:27;;;;;;;2.97;1.10;;;;;;;;;;4912376;29;20059;-81
2023/08/29 03:41:56;;;;;;;4.05;1.50;;;;;;;;;;4939911;29;20028;-83
2023/08/29 03:44:28;;;;;;;3.38;1.10;;;;;;;;;;4923102;29;20385;-83
2023/08/29 03:46:54;;;;;;;5.07;1.20;;;;;;;;;;4923266;29;20039;-82
2023/08/29 03:49:20;;;;;;;3.83;1.40;;;;;;;;;;4922903;29;20473;-81
2023/08/29 03:51:46;;;;;;;2.72;1.13;;;;;;;;;;4940541;29;20028;-81
2023/08/29 03:54:12;;;;;;;5.82;1.35;;;;;;;;;;4940018;29;20047;-82
2023/08/29 03:56:38;;;;;;;3.83;1.20;;;;;;;;;;4940151;29;20067;-81
2023/08/29 03:59:04;;;;;;;4.03;1.42;;;;;;;;;;4940212;29;20071;-81
2023/08/29 04:01:30;;;;;;;2.80;1.17;;;;;;;;;;4939912;29;20032;-81
2023/08/29 04:04:23;;;;;;;3.90;1.40;;;;;;;;;;4939885;29;20019;-82
2023/08/29 04:06:48;;;;;;;2.45;1.20;;;;;;;;;;4940094;29;20032;-82
2023/08/29 04:09:14;;;;;;;4.38;1.27;;;;;;;;;;4941567;29;20028;-82
2023/08/29 04:11:40;;;;;;;3.47;1.08;;;;;;;;;;4932771;29;20059;-81
2023/08/29 04:14:06;;;;;;;4.38;1.00;;;;;;;;;;4934935;29;20024;-81
2023/08/29 04:16:33;;;;;;;4.82;1.33;;;;;;;;;;4944079;29;20499;-83
2023/08/29 04:18:59;;;;;;;3.08;1.25;;;;;;;;;;4939667;29;20030;-81
2023/08/29 04:21:25;;;;;;;5.43;1.40;;;;;;;;;;4940043;29;20032;-81
2023/08/29 04:23:51;;;;;;;5.40;1.50;;;;;;;;;;4922439;29;20020;-81
2023/08/29 04:26:17;;;;;;;3.67;1.30;;;;;;;;;;4922513;29;20333;-80
2023/08/29 04:28:44;;;;;;;2.28;1.30;;;;;;;;;;4912006;29;20480;-81
2023/08/29 04:31:11;;;;;;;2.00;1.02;;;;;;;;;;4922113;29;20032;-81
2023/08/29 04:33:52;;;;;;;6.15;1.70;;;;;;;;;;4922491;29;20092;-83
2023/08/29 04:36:18;;;;;;;4.07;1.30;;;;;;;;;;4939565;29;20039;-83
2023/08/29 04:39:00;;;;;;;3.90;1.20;;;;;;;;;;4933292;29;20197;-84
2023/08/29 04:44:44;;;;;;;4.13;1.23;;;;;;;;;;4936538;29;20038;-85
2023/08/29 04:50:26;;;;;;;5.70;1.75;;;;;;;;;;4894119;29;20038;-81
2023/08/29 04:52:53;;;;;;;4.00;1.40;;;;;;;;;;4926028;29;20107;-80
2023/08/29 04:55:49;;;;;;;3.42;1.20;;;;;;;;;;4912395;29;20079;-84
2023/08/29 04:58:20;;;;;;;3.70;1.40;;;;;;;;;;4918916;29;20031;-82
2023/08/29 05:00:52;;;;;;;2.95;1.33;;;;;;;;;;4922060;29;20050;-83
2023/08/29 05:03:23;;;;;;;3.45;1.23;;;;;;;;;;4940233;29;20024;-83
2023/08/29 05:05:51;;;;;;;4.43;1.55;;;;;;;;;;4939520;29;20169;-79
2023/08/29 05:08:17;;;;;;;2.78;1.42;;;;;;;;;;4942971;29;20054;-81
2023/08/29 05:10:44;;;;;;;4.13;1.27;;;;;;;;;;4925576;29;20062;-80
2023/08/29 05:13:10;;;;;;;5.30;1.77;;;;;;;;;;4938752;29;20035;-80
2023/08/29 05:15:36;;;;;;;4.47;1.42;;;;;;;;;;4942362;29;20027;-80
2023/08/29 05:18:46;;;;;;;3.50;1.40;;;;;;;;;;4942808;29;20019;-83
2023/08/29 05:21:23;;;;;;;5.72;1.50;;;;;;;;;;4849864;29;20029;-84
2023/08/29 05:32:55;;;;;;;4.90;1.80;;;;;;;;;;4913979;29;20093;-82
2023/08/29 05:35:21;;;;;;;3.75;1.52;;;;;;;;;;4941613;29;20464;-82
2023/08/29 05:37:47;;;;;;;6.10;1.42;;;;;;;;;;4924091;29;20111;-83
2023/08/29 05:40:13;;;;;;;3.85;1.67;;;;;;;;;;4914083;29;20479;-82
2023/08/29 05:42:39;;;;;;;3.17;1.40;;;;;;;;;;4925043;29;20078;-82
2023/08/29 05:45:05;;;;;;;2.83;1.63;;;;;;;;;;4941762;29;20028;-82
2023/08/29 05:47:31;;;;;;;3.75;1.65;;;;;;;;;;4925173;29;20027;-82
2023/08/29 05:49:57;;;;;;;4.75;1.75;;;;;;;;;;4924987;29;20397;-79
2023/08/29 05:52:24;;;;;;;4.18;1.50;;;;;;;;;;4937092;29;20015;-80
2023/08/29 05:54:50;;;;;;;4.60;1.65;;;;;;;;;;4934690;29;20048;-80
2023/08/29 05:57:16;;;;;;;4.10;1.40;;;;;;;;;;4924091;29;20061;-80
2023/08/29 05:59:42;;;;;;;3.35;1.58;;;;;;;;;;4933927;29;20019;-80
2023/08/29 06:02:08;;;;;;;4.45;1.40;;;;;;;;;;4941826;29;20107;-81
2023/08/29 06:04:34;;;;;;;2.97;1.42;;;;;;;;;;4924492;29;20019;-81
2023/08/29 06:07:00;;;;;;;4.28;1.77;;;;;;;;;;4941778;29;20142;-82
2023/08/29 06:09:26;;;;;;;3.78;1.80;;;;;;;;;;4924567;29;20028;-81
2023/08/29 06:11:52;;;;;;;3.65;1.58;;;;;;;;;;4924653;29;20059;-82
2023/08/29 06:14:27;;;;;;;2.40;1.40;;;;;;;;;;4941380;29;20024;-82
2023/08/29 06:16:54;;;;;;;5.53;2.00;;;;;;;;;;4933770;29;20040;-76
2023/08/29 06:19:20;;;;;;;4.70;1.77;;;;;;;;;;4921510;29;20028;-83
2023/08/29 06:21:46;;;;;;;2.80;1.50;;;;;;;;;;4924379;29;20035;-79
2023/08/29 06:24:14;;;;;;;3.80;1.50;;;;;;;;;;4936829;29;20458;-67
2023/08/29 06:26:40;;;;;;;3.13;1.30;;;;;;;;;;4936772;29;20028;-64
2023/08/29 06:29:06;;;;;;;3.58;1.40;;;;;;;;;;4926965;29;20111;-64
2023/08/29 06:31:32;;;;;;;2.97;1.10;;;;;;;;;;4935907;29;20044;-62
2023/08/29 06:33:59;;;;;;;4.45;1.40;;;;;;;;;;4940579;29;20090;-64
2023/08/29 06:36:25;;;;;;;3.40;1.23;;;;;;;;;;4938453;29;20030;-63
2023/08/29 06:38:51;;;;;;;2.72;1.38;;;;;;;;;;4915652;29;20783;-65
2023/08/29 06:41:17;;;;;;;2.05;1.30;;;;;;;;;;4905300;29;20036;-63
2023/08/29 06:43:43;;;;;;;2.90;1.55;;;;;;;;;;4925031;29;20393;-65
2023/08/29 06:46:09;;;;;;;2.28;1.50;;;;;;;;;;4929564;29;20572;-64
2023/08/29 06:48:36;;;;;;;3.17;1.60;;;;;;;;;;4906115;29;20061;-63
2023/08/29 06:51:02;;;;;;;3.20;1.50;;;;;;;;;;4922864;29;20039;-64
2023/08/29 06:53:28;;;;;;;3.15;1.50;;;;;;;;;;4918347;29;20032;-63
2023/08/29 06:55:54;;;;;;;3.05;1.60;;;;;;;;;;4921054;29;20040;-63
2023/08/29 06:58:20;;;;;;;2.63;1.20;;;;;;;;;;4928206;29;20020;-63
2023/08/29 07:00:46;;;;;;;2.38;1.52;;;;;;;;;;4929687;29;20056;-63
2023/08/29 07:03:13;;;;;;;2.95;1.38;;;;;;;;;;4927769;29;20025;-64
2023/08/29 07:05:39;;;;;;;3.10;1.50;;;;;;;;;;4926603;29;20055;-64
2023/08/29 07:08:06;;;;;;;3.13;1.20;;;;;;;;;;4925787;29;20043;-63
2023/08/29 07:10:33;;;;;;;4.00;1.27;;;;;;;;;;4924978;29;20056;-64
2023/08/29 07:12:59;;;;;;;4.63;1.33;;;;;;;;;;4920047;29;20735;-63
2023/08/29 07:15:24;;;;;;;3.28;1.30;;;;;;;;;;4920634;29;20116;-63
2023/08/29 07:17:50;;;;;;;2.92;1.20;;;;;;;;;;4919791;29;20048;-63
2023/08/29 07:20:17;;;;;;;4.53;1.60;;;;;;;;;;4919699;29;20405;-63
2023/08/29 07:22:43;;;;;;;2.13;1.20;;;;;;;;;;4920464;29;20060;-64
2023/08/29 07:25:09;;;;;;;2.35;1.17;;;;;;;;;;4903215;29;20092;-63
2023/08/29 07:27:35;;;;;;;2.30;1.30;;;;;;;;;;4920016;29;20041;-63
2023/08/29 07:30:01;;;;;;;3.90;1.30;;;;;;;;;;4920041;29;20032;-64
2023/08/29 07:32:28;;;;;;;1.98;1.02;;;;;;;;;;4920053;29;20028;-63
2023/08/29 07:34:56;;;;;;;2.00;1.00;;;;;;;;;;4920214;29;20033;-64
2023/08/29 07:37:22;;;;;;;3.25;1.45;;;;;;;;;;4923442;29;20097;-63
2023/08/29 07:39:47;;;;;;;2.53;1.20;;;;;;;;;;4926588;29;20032;-63
2023/08/29 07:42:14;;;;;;;2.47;1.15;;;;;;;;;;4938020;29;20024;-63
2023/08/29 07:44:40;;;;;;;3.55;1.10;;;;;;;;;;4924870;29;20088;-63
2023/08/29 07:47:06;;;;;;;2.50;1.20;;;;;;;;;;4921290;29;20027;-63
2023/08/29 07:49:32;;;;;;;4.47;1.50;;;;;;;;;;4905483;29;20032;-64
2023/08/29 07:51:58;;;;;;;3.28;1.42;;;;;;;;;;4921300;29;20028;-63
2023/08/29 07:54:24;;;;;;;3.45;1.20;;;;;;;;;;4920949;29;20032;-64
2023/08/29 07:56:50;;;;;;;2.10;1.10;;;;;;;;;;4928144;29;20493;-64
2023/08/29 07:59:16;;;;;;;3.55;1.52;;;;;;;;;;4939778;29;20118;-64
2023/08/29 08:01:43;;;;;;;1.98;1.20;;;;;;;;;;4939948;29;20028;-63
2023/08/29 08:04:09;;;;;;;2.80;1.30;;;;;;;;;;4938361;29;20086;-64
2023/08/29 08:06:35;;;;;;;6.93;1.20;;;;;;;;;;4920944;29;20543;-63
2023/08/29 08:09:02;;;;;;;3.97;1.30;;;;;;;;;;4920961;29;20032;-64
2023/08/29 08:11:28;;;;;;;2.88;1.20;;;;;;;;;;4915917;29;20063;-64
2023/08/29 08:13:54;;;;;;;4.40;1.83;;;;;;;;;;4920766;29;20032;-63
2023/08/29 08:16:20;;;;;;;2.50;1.23;;;;;;;;;;4920577;29;20032;-63
2023/08/29 08:18:46;;;;;;;2.53;1.38;;;;;;;;;;4920564;29;20052;-63
2023/08/29 08:21:12;;;;;;;2.10;1.20;;;;;;;;;;4920542;29;20032;-63
2023/08/29 08:23:38;;;;;;;2.22;1.00;;;;;;;;;;4918735;29;20036;-64
2023/08/29 08:26:04;;;;;;;1.88;0.98;;;;;;;;;;4901722;29;20032;-63
2023/08/29 08:28:30;;;;;;;2.92;1.33;;;;;;;;;;4901728;29;20037;-63
2023/08/29 08:30:56;;;;;;;1.90;1.10;;;;;;;;;;4902697;29;20025;-63
2023/08/29 08:33:24;;;;;;;1.13;0.80;;;;;;;;;;4905972;29;20025;-64
2023/08/29 08:35:50;;;;;;;1.55;0.90;;;;;;;;;;4901756;29;20043;-64
2023/08/29 08:38:16;;;;;;;2.40;1.00;;;;;;;;;;4901612;29;20032;-64
2023/08/29 08:40:42;;;;;;;3.45;1.00;;;;;;;;;;4903123;29;20025;-63
2023/08/29 08:43:10;;;;;;;2.22;1.10;;;;;;;;;;4901602;29;20048;-63
2023/08/29 08:45:37;;;;;;;1.80;0.82;;;;;;;;;;4901505;29;20032;-63
2023/08/29 08:48:03;;;;;;;2.63;1.10;;;;;;;;;;4886043;29;20100;-63
2023/08/29 08:50:29;;;;;;;3.17;1.60;;;;;;;;;;4901503;29;20025;-63
2023/08/29 08:52:56;;;;;;;1.67;0.98;;;;;;;;;;4901271;29;20043;-64
2023/08/29 08:55:22;;;;;;;5.43;1.13;;;;;;;;;;4901223;29;20508;-63
2023/08/29 08:57:50;;;;;;;2.53;0.93;;;;;;;;;;4916843;29;20059;-65
2023/08/29 09:00:16;;;;;;;1.67;0.90;;;;;;;;;;4919999;29;20095;-64
2023/08/29 09:02:43;;;;;;;2.15;1.00;;;;;;;;;;4919779;29;20028;-65
2023/08/29 09:05:09;;;;;;;2.72;1.10;;;;;;;;;;4910574;29;20501;-64
2023/08/29 09:07:39;;;;;;;2.05;1.23;;;;;;;;;;4901467;29;20024;-64
2023/08/29 09:10:12;;;;;;;3.65;1.13;;;;;;;;;;4901374;29;20040;-63
2023/08/29 09:12:48;;;;;;;2.80;1.08;;;;;;;;;;4901217;29;20032;-63
2023/08/29 09:15:18;;;;;;;2.30;1.10;;;;;;;;;;4901379;29;20040;-63
2023/08/29 09:17:45;;;;;;;3.20;1.20;;;;;;;;;;4901530;29;20081;-63
2023/08/29 09:20:11;;;;;;;1.60;0.98;;;;;;;;;;4901427;29;20077;-63
2023/08/29 09:22:40;;;;;;;2.65;1.05;;;;;;;;;;4884571;29;20025;-64
2023/08/29 09:25:06;;;;;;;5.10;0.90;;;;;;;;;;4901172;29;20099;-63
2023/08/29 09:27:39;;;;;;;1.58;0.93;;;;;;;;;;4896721;29;20049;-64
2023/08/29 09:30:09;;;;;;;2.40;1.20;;;;;;;;;;4901135;29;20474;-63
2023/08/29 09:32:35;;;;;;;2.33;1.15;;;;;;;;;;4901247;29;20029;-63
2023/08/29 09:35:01;;;;;;;1.88;1.10;;;;;;;;;;4903277;29;20021;-63
2023/08/29 09:37:27;;;;;;;1.90;0.80;;;;;;;;;;4904541;29;20025;-63
2023/08/29 09:39:56;;;;;;;3.63;1.10;;;;;;;;;;4905605;29;20064;-63
2023/08/29 09:42:22;;;;;;;1.35;0.70;;;;;;;;;;4904453;29;20024;-63
2023/08/29 09:44:50;;;;;;;1.65;0.85;;;;;;;;;;4904213;29;20408;-63
2023/08/29 09:47:23;;;;;;;1.63;0.82;;;;;;;;;;4904655;29;20036;-64
2023/08/29 09:49:49;;;;;;;;;;;;;;;;;;4906255;29;20040;-63
2023/08/29 09:52:15;;;;;;;1.52;0.88;;;;;;;;;;4904288;29;20780;-64
2023/08/29 09:54:52;;;;;;;1.65;0.85;;;;;;;;;;4903841;29;20525;-63
2023/08/29 09:57:19;;;;;;;1.83;0.93;;;;;;;;;;4908917;29;20051;-63
2023/08/29 09:59:46;;;;;;;1.30;0.80;;;;;;;;;;4922810;29;20025;-63
2023/08/29 10:02:12;;;;;;;2.40;0.90;;;;;;;;;;4922901;29;20084;-63
2023/08/29 10:04:59;;;;;;;2.50;0.90;;;;;;;;;;4907246;29;20032;-63
2023/08/29 10:07:28;;;;;;;1.05;0.80;;;;;;;;;;4893774;29;20514;-63
2023/08/29 10:09:55;;;;;;;1.88;1.00;;;;;;;;;;4903654;29;20080;-63
2023/08/29 10:12:21;;;;;;;3.10;1.00;;;;;;;;;;4903700;29;20041;-63
2023/08/29 10:14:47;;;;;;;3.15;0.98;;;;;;;;;;4903173;29;20049;-62
2023/08/29 10:17:14;;;;;;;2.85;1.02;;;;;;;;;;4916763;29;20434;-63
2023/08/29 10:19:41;;;;;;;1.95;0.73;;;;;;;;;;4922565;29;20024;-62
2023/08/29 10:22:07;;;;;;;2.63;1.00;;;;;;;;;;4905372;29;20032;-63
2023/08/29 10:24:36;;;;;;;2.95;1.00;;;;;;;;;;4922470;29;20024;-63
2023/08/29 10:27:05;;;;;;;2.10;1.00;;;;;;;;;;4907031;29;20088;-64
2023/08/29 10:29:32;;;;;;;1.40;0.93;;;;;;;;;;4886290;29;20587;-63
2023/08/29 10:31:59;;;;;;;1.55;0.75;;;;;;;;;;4903543;29;20035;-63
2023/08/29 10:34:28;;;;;;;2.15;1.27;;;;;;;;;;4903601;29;20064;-64
2023/08/29 10:36:54;;;;;;;1.65;0.85;;;;;;;;;;4903289;29;20040;-65
2023/08/29 10:39:20;;;;;;;1.52;0.93;;;;;;;;;;4906194;29;20028;-65
2023/08/29 10:41:47;;;;;;;1.85;0.80;;;;;;;;;;4901540;29;20107;-66
2023/08/29 10:44:31;;;;;;;3.13;0.88;;;;;;;;;;4902855;29;20031;-66
2023/08/29 10:47:15;;;;;;;2.30;0.80;;;;;;;;;;4903147;29;20033;-65
2023/08/29 10:49:44;;;;;;;2.42;0.88;;;;;;;;;;4904320;29;20028;-65
2023/08/29 10:52:11;;;;;;;2.15;0.93;;;;;;;;;;4903423;29;20093;-65
2023/08/29 10:54:37;;;;;;;1.70;0.80;;;;;;;;;;4885813;29;20033;-64
2023/08/29 10:57:23;;;;;;;2.15;0.77;;;;;;;;;;4913052;29;20039;-65
2023/08/29 10:59:49;;;;;;;1.45;0.73;;;;;;;;;;4921037;29;20491;-65
2023/08/29 11:02:23;;;;;;;1.13;0.80;;;;;;;;;;4921060;29;20024;-65
2023/08/29 11:04:53;;;;;;;1.40;0.90;;;;;;;;;;4921954;29;20020;-64
2023/08/29 11:07:25;;;;;;;1.95;0.80;;;;;;;;;;4920060;29;20068;-64
2023/08/29 11:10:11;;;;;;;1.92;0.90;;;;;;;;;;4921402;29;20024;-65
2023/08/29 11:12:37;;;;;;;1.45;0.77;;;;;;;;;;4940203;29;20059;-64
2023/08/29 11:15:03;;;;;;;1.10;0.80;;;;;;;;;;4912510;29;20032;-64
2023/08/29 11:17:31;;;;;;;1.17;0.80;;;;;;;;;;4922160;29;20477;-64
2023/08/29 11:19:58;;;;;;;2.65;0.80;;;;;;;;;;4921323;29;20034;-64
2023/08/29 11:22:26;;;;;;;1.20;0.70;;;;;;;;;;4921298;29;20032;-63
2023/08/29 11:24:55;;;;;;;2.60;0.70;;;;;;;;;;4921447;29;20029;-63
2023/08/29 11:27:22;;;;;;;1.65;0.70;;;;;;;;;;4921049;29;20039;-64
2023/08/29 11:29:48;;;;;;;2.42;0.90;;;;;;;;;;4904315;29;20032;-63
2023/08/29 11:32:15;;;;;;;1.52;0.70;;;;;;;;;;4921464;29;20038;-64
2023/08/29 11:34:41;;;;;;;1.42;0.77;;;;;;;;;;4921497;29;20489;-63
2023/08/29 11:37:10;;;;;;;2.17;0.80;;;;;;;;;;4921594;29;20058;-63
2023/08/29 11:39:38;;;;;;;1.40;0.70;;;;;;;;;;4922941;29;20033;-64
2023/08/29 11:42:04;;;;;;;1.60;0.80;;;;;;;;;;4921521;29;20112;-64
2023/08/29 11:44:33;;;;;;;1.80;0.70;;;;;;;;;;4921051;29;20103;-64
2023/08/29 11:46:59;;;;;;;1.55;0.70;;;;;;;;;;4904134;29;20032;-64
2023/08/29 11:49:26;;;;;;;2.25;0.90;;;;;;;;;;4922793;29;20024;-64
2023/08/29 11:51:52;;;;;;;1.63;0.60;;;;;;;;;;4904417;29;20409;-64
2023/08/29 11:54:38;;;;;;;2.10;0.70;;;;;;;;;;4904012;29;20060;-64
2023/08/29 11:57:06;;;;;;;1.52;0.60;;;;;;;;;;4920694;29;20115;-68
2023/08/29 11:59:32;;;;;;;1.52;0.60;;;;;;;;;;4920636;29;20029;-64
2023/08/29 12:01:58;;;;;;;2.17;0.90;;;;;;;;;;4920658;29;20024;-64
2023/08/29 12:04:24;;;;;;;1.65;0.60;;;;;;;;;;4920986;29;20509;-64
2023/08/29 12:06:50;;;;;;;1.15;0.75;;;;;;;;;;4921025;29;20136;-64
2023/08/29 12:09:23;;;;;;;1.30;0.75;;;;;;;;;;4920937;29;20028;-64
2023/08/29 12:11:49;;;;;;;2.28;0.70;;;;;;;;;;4904977;29;20078;-64
2023/08/29 12:14:15;;;;;;;1.20;0.70;;;;;;;;;;4901758;29;20119;-63
2023/08/29 12:16:41;;;;;;;1.75;0.70;;;;;;;;;;4901729;29;20086;-65
2023/08/29 12:19:13;;;;;;;1.50;0.80;;;;;;;;;;4901881;29;20028;-65
2023/08/29 12:21:39;;;;;;;0.87;0.60;;;;;;;;;;4902138;29;20032;-65
2023/08/29 12:24:10;;;;;;;1.70;0.82;;;;;;;;;;4901799;29;20024;-64
2023/08/29 12:26:36;;;;;;;1.13;0.60;;;;;;;;;;4901915;29;20386;-64
2023/08/29 12:29:02;;;;;;;0.65;0.50;;;;;;;;;;4896990;29;20035;-64
2023/08/29 12:31:28;;;;;;;2.05;0.50;;;;;;;;;;4897625;29;20059;-64
2023/08/29 12:33:54;;;;;;;0.90;0.60;;;;;;;;;;4920766;29;20036;-64
2023/08/29 12:36:20;;;;;;;1.67;0.60;;;;;;;;;;4920752;29;20099;-64
2023/08/29 12:38:46;;;;;;;1.35;0.60;;;;;;;;;;4897296;29;20029;-64
2023/08/29 12:41:16;;;;;;;1.75;0.82;;;;;;;;;;4903278;29;20036;-64
2023/08/29 12:43:42;;;;;;;1.40;0.70;;;;;;;;;;4901908;29;20047;-65
2023/08/29 12:46:09;;;;;;;1.85;0.50;;;;;;;;;;4901577;29;20052;-65
2023/08/29 12:48:35;;;;;;;1.27;0.70;;;;;;;;;;4903055;29;20028;-64
2023/08/29 12:51:02;;;;;;;1.75;0.80;;;;;;;;;;4901867;29;20033;-64
2023/08/29 12:53:28;;;;;;;1.70;0.75;;;;;;;;;;4901812;29;20179;-64
2023/08/29 12:55:54;;;;;;;1.88;0.60;;;;;;;;;;4901590;29;20033;-64
2023/08/29 12:58:20;;;;;;;1.75;0.90;;;;;;;;;;4901664;29;20129;-64
2023/08/29 13:00:46;;;;;;;1.17;0.57;;;;;;;;;;4901463;29;20043;-64
2023/08/29 13:03:12;;;;;;;0.98;0.60;;;;;;;;;;4901603;29;20025;-64
2023/08/29 13:05:38;;;;;;;1.50;0.70;;;;;;;;;;4901581;29;20029;-64
2023/08/29 13:08:04;;;;;;;1.55;0.90;;;;;;;;;;4902618;29;20393;-65
2023/08/29 13:10:30;;;;;;;1.23;0.50;;;;;;;;;;4904966;29;20126;-64
2023/08/29 13:12:57;;;;;;;1.20;0.50;;;;;;;;;;4905192;29;20032;-65
2023/08/29 13:15:23;;;;;;;0.68;0.50;;;;;;;;;;4904867;29;20036;-64
2023/08/29 13:17:50;;;;;;;0.98;0.60;;;;;;;;;;4905081;29;20506;-65
2023/08/29 13:20:16;;;;;;;1.25;0.60;;;;;;;;;;4904962;29;20029;-64
2023/08/29 13:22:42;;;;;;;0.80;0.60;;;;;;;;;;4905059;29;20021;-65
2023/08/29 13:25:10;;;;;;;1.65;0.73;;;;;;;;;;4904766;29;20035;-65
2023/08/29 13:27:36;;;;;;;1.30;0.70;;;;;;;;;;4904712;29;20020;-64
2023/08/29 13:30:04;;;;;;;1.02;0.70;;;;;;;;;;4904227;29;20363;-64
2023/08/29 13:32:30;;;;;;;1.70;0.68;;;;;;;;;;4904511;29;20502;-64
2023/08/29 13:34:57;;;;;;;1.38;0.60;;;;;;;;;;4904231;29;20060;-64
2023/08/29 13:37:23;;;;;;;2.17;0.60;;;;;;;;;;4904669;29;20386;-64
2023/08/29 13:39:59;;;;;;;1.65;0.70;;;;;;;;;;4905849;29;20048;-64
2023/08/29 13:42:25;;;;;;;2.45;0.80;;;;;;;;;;4887543;29;20033;-64
2023/08/29 13:44:56;;;;;;;1.27;0.80;;;;;;;;;;4903940;29;20485;-65
2023/08/29 13:47:23;;;;;;;1.77;0.70;;;;;;;;;;4904728;29;20029;-64
2023/08/29 13:49:49;;;;;;;1.25;0.80;;;;;;;;;;4905497;29;20401;-64
2023/08/29 13:52:15;;;;;;;3.15;1.20;;;;;;;;;;4904412;29;20033;-64
2023/08/29 13:54:41;;;;;;;1.60;0.77;;;;;;;;;;4903988;29;20028;-64
2023/08/29 13:57:07;;;;;;;1.13;0.57;;;;;;;;;;4904580;29;20032;-64
2023/08/29 13:59:33;;;;;;;1.42;0.70;;;;;;;;;;4903809;29;20029;-64
2023/08/29 14:01:59;;;;;;;0.90;0.60;;;;;;;;;;4904538;29;20031;-64
2023/08/29 14:04:25;;;;;;;1.38;0.77;;;;;;;;;;4904288;29;20032;-64
2023/08/29 14:06:51;;;;;;;1.05;0.63;;;;;;;;;;4904468;29;20029;-64
2023/08/29 14:09:17;;;;;;;0.88;0.70;;;;;;;;;;4904044;29;20036;-64
2023/08/29 14:11:43;;;;;;;1.35;0.80;;;;;;;;;;4903782;29;20094;-64
2023/08/29 14:14:09;;;;;;;0.65;0.50;;;;;;;;;;4903923;29;20029;-64
2023/08/29 14:16:35;;;;;;;1.33;0.77;;;;;;;;;;4904218;29;20103;-64
2023/08/29 14:19:01;;;;;;;2.42;0.77;;;;;;;;;;4903521;29;20066;-64
2023/08/29 14:21:27;;;;;;;1.35;0.75;;;;;;;;;;4903703;29;20060;-64
2023/08/29 14:23:53;;;;;;;2.03;0.98;;;;;;;;;;4903832;29;20052;-63
2023/08/29 14:26:19;;;;;;;1.35;0.82;;;;;;;;;;4886967;29;20021;-63
2023/08/29 14:28:45;;;;;;;1.75;0.70;;;;;;;;;;4898798;29;20067;-65
2023/08/29 14:31:11;;;;;;;1.65;0.73;;;;;;;;;;4903976;29;20035;-63
2023/08/29 14:33:37;;;;;;;1.70;0.70;;;;;;;;;;4903522;29;20057;-64
2023/08/29 14:36:03;;;;;;;0.95;0.60;;;;;;;;;;4903322;29;20407;-63
2023/08/29 14:38:30;;;;;;;0.98;0.60;;;;;;;;;;4916127;29;20088;-63
2023/08/29 14:41:05;;;;;;;2.38;0.70;;;;;;;;;;4903524;29;20033;-64
2023/08/29 14:43:32;;;;;;;1.10;0.70;;;;;;;;;;4903430;29;20371;-64
2023/08/29 14:45:59;;;;;;;2.30;0.82;;;;;;;;;;4903066;29;20438;-65
2023/08/29 14:48:25;;;;;;;1.15;0.80;;;;;;;;;;4904478;29;20470;-65
2023/08/29 14:50:51;;;;;;;1.55;0.80;;;;;;;;;;4903320;29;20029;-65
2023/08/29 14:53:17;;;;;;;0.70;0.55;;;;;;;;;;4903386;29;20055;-64
2023/08/29 14:55:44;;;;;;;1.40;0.80;;;;;;;;;;4903206;29;20049;-64
2023/08/29 14:58:10;;;;;;;2.13;0.80;;;;;;;;;;4903276;29;20517;-64
2023/08/29 15:00:41;;;;;;;3.17;1.00;;;;;;;;;;4903047;29;20128;-64
2023/08/29 15:03:07;;;;;;;1.58;0.77;;;;;;;;;;4903474;29;20040;-64
2023/08/29 15:05:33;;;;;;;0.90;0.70;;;;;;;;;;4902859;29;20061;-64
2023/08/29 15:07:59;;;;;;;1.10;0.70;;;;;;;;;;4903025;29;20447;-64
2023/08/29 15:10:25;;;;;;;1.27;0.93;;;;;;;;;;4902671;29;20052;-64
2023/08/29 15:12:51;;;;;;;1.83;0.88;;;;;;;;;;4903058;29;20063;-64
2023/08/29 15:15:18;;;;;;;1.55;1.13;;;;;;;;;;4902372;29;20486;-64
2023/08/29 15:17:44;;;;;;;1.45;1.00;;;;;;;;;;4885882;29;20128;-63